createdAt,value
2022-11-27T00:00:47.061Z,4.34
2022-11-27T00:03:34.127Z,4.29
2022-11-27T00:06:23.369Z,4.22
2022-11-27T00:09:15.243Z,3.97
2022-11-27T00:12:02.347Z,3.91
2022-11-27T00:14:54.654Z,3.86
2022-11-27T00:17:42.543Z,3.85
2022-11-27T00:20:30.037Z,3.81
2022-11-27T00:23:16.939Z,3.79
2022-11-27T00:26:05.324Z,3.76
2022-11-27T00:28:52.488Z,3.81
2022-11-27T00:31:39.461Z,3.92
2022-11-27T00:34:26.595Z,3.97
2022-11-27T00:37:14.872Z,3.95
2022-11-27T00:40:02.129Z,4.00
2022-11-27T00:42:49.089Z,3.96
2022-11-27T00:45:36.026Z,3.98
2022-11-27T00:48:23.230Z,3.98
2022-11-27T00:51:16.304Z,3.98
2022-11-27T00:54:04.530Z,3.94
2022-11-27T00:56:51.466Z,3.99
2022-11-27T00:59:38.420Z,3.98
2022-11-27T01:02:25.497Z,4.02
2022-11-27T01:05:12.669Z,4.07
2022-11-27T01:07:59.641Z,4.07
2022-11-27T01:10:56.083Z,4.10
2022-11-27T01:13:43.054Z,4.12
2022-11-27T01:16:32.016Z,4.14
2022-11-27T01:19:19.484Z,4.16
2022-11-27T01:22:06.604Z,4.15
2022-11-27T01:24:53.525Z,4.00
2022-11-27T01:27:40.481Z,3.97
2022-11-27T01:30:27.393Z,3.92
2022-11-27T01:33:14.421Z,3.93
2022-11-27T01:36:03.775Z,3.91
2022-11-27T01:38:51.218Z,3.87
2022-11-27T01:41:41.484Z,3.82
2022-11-27T01:44:50.809Z,3.80
2022-11-27T01:47:45.875Z,3.74
2022-11-27T01:50:39.179Z,3.67
2022-11-27T01:53:26.160Z,3.59
2022-11-27T01:56:14.821Z,3.57
2022-11-27T01:59:03.791Z,3.47
2022-11-27T02:01:50.864Z,3.52
2022-11-27T02:04:38.206Z,3.50
2022-11-27T02:07:25.659Z,3.49
2022-11-27T02:10:13.206Z,3.31
2022-11-27T02:13:07.576Z,3.35
2022-11-27T02:16:06.949Z,3.26
2022-11-27T02:19:17.026Z,3.30
2022-11-27T02:22:14.896Z,3.24
2022-11-27T02:25:16.541Z,3.23
2022-11-27T02:28:50.005Z,3.11
2022-11-27T02:31:53.312Z,2.98
2022-11-27T02:34:58.908Z,2.94
2022-11-27T02:38:00.029Z,2.93
2022-11-27T02:41:03.023Z,2.88
2022-11-27T02:43:53.195Z,2.82
2022-11-27T02:46:41.947Z,2.67
2022-11-27T02:49:29.284Z,2.74
2022-11-27T02:52:18.657Z,2.84
2022-11-27T02:55:11.352Z,2.95
2022-11-27T02:58:02.096Z,2.93
2022-11-27T03:00:50.670Z,2.91
2022-11-27T03:03:43.824Z,2.83
2022-11-27T03:06:39.455Z,2.92
2022-11-27T03:09:34.400Z,2.85
2022-11-27T03:12:21.433Z,2.74
2022-11-27T03:15:09.353Z,2.60
2022-11-27T03:18:06.775Z,2.69
2022-11-27T03:21:19.168Z,2.72
2022-11-27T03:24:08.094Z,2.74
2022-11-27T03:26:57.083Z,2.64
2022-11-27T03:29:54.467Z,2.41
2022-11-27T03:32:41.511Z,2.18
2022-11-27T03:35:28.537Z,1.99
2022-11-27T03:38:15.474Z,1.93
2022-11-27T03:41:10.016Z,1.84
2022-11-27T03:44:23.719Z,1.93
2022-11-27T03:48:06.220Z,1.88
2022-11-27T03:51:19.292Z,1.86
2022-11-27T03:54:40.105Z,1.97
2022-11-27T03:57:59.140Z,1.91
2022-11-27T04:00:50.129Z,2.01
2022-11-27T04:03:37.403Z,2.00
2022-11-27T04:06:24.478Z,1.95
2022-11-27T04:09:11.413Z,1.93
2022-11-27T04:11:58.364Z,1.92
2022-11-27T04:14:45.281Z,1.93
2022-11-27T04:17:32.469Z,1.95
2022-11-27T04:20:19.384Z,2.03
2022-11-27T04:23:06.408Z,2.16
2022-11-27T04:25:53.417Z,2.21
2022-11-27T04:28:40.452Z,2.35
2022-11-27T04:31:27.422Z,2.41
2022-11-27T04:34:14.451Z,2.48
2022-11-27T04:37:01.351Z,2.50
2022-11-27T04:39:48.295Z,2.49
2022-11-27T04:42:35.310Z,2.50
2022-11-27T04:45:22.363Z,2.59
2022-11-27T04:48:09.325Z,2.77
2022-11-27T04:50:56.248Z,2.93
2022-11-27T04:53:43.188Z,2.90
2022-11-27T04:56:30.332Z,2.94
2022-11-27T04:59:17.342Z,3.00
2022-11-27T05:02:04.506Z,2.97
2022-11-27T05:04:51.420Z,2.95
2022-11-27T05:07:38.430Z,2.90
2022-11-27T05:10:25.409Z,2.82
2022-11-27T05:13:12.364Z,2.82
2022-11-27T05:15:59.336Z,2.78
2022-11-27T05:18:46.282Z,2.83
2022-11-27T05:21:33.200Z,2.85
2022-11-27T05:24:21.623Z,2.78
2022-11-27T05:27:08.544Z,2.89
2022-11-27T05:29:55.509Z,2.91
2022-11-27T05:32:42.411Z,2.77
2022-11-27T05:35:29.395Z,2.77
2022-11-27T05:38:16.313Z,2.82
2022-11-27T05:41:03.304Z,2.89
2022-11-27T05:43:50.401Z,2.93
2022-11-27T05:46:37.350Z,2.85
2022-11-27T05:49:24.327Z,2.82
2022-11-27T05:52:11.258Z,2.86
2022-11-27T05:54:58.238Z,2.89
2022-11-27T05:57:45.407Z,2.84
2022-11-27T06:00:32.374Z,2.82
2022-11-27T06:03:19.575Z,2.95
2022-11-27T06:06:12.200Z,2.83
2022-11-27T06:08:59.194Z,2.92
2022-11-27T06:11:46.127Z,2.91
2022-11-27T06:14:35.067Z,2.97
2022-11-27T06:17:21.893Z,3.05
2022-11-27T06:20:09.422Z,3.02
2022-11-27T06:22:57.326Z,3.07
2022-11-27T06:25:44.343Z,3.14
2022-11-27T06:28:31.239Z,3.14
2022-11-27T06:31:21.535Z,3.15
2022-11-27T06:34:08.502Z,3.19
2022-11-27T06:36:55.363Z,3.22
2022-11-27T06:39:42.362Z,3.18
2022-11-27T06:42:30.344Z,3.07
2022-11-27T06:45:17.343Z,3.10
2022-11-27T06:48:04.391Z,3.09
2022-11-27T06:50:51.292Z,3.25
2022-11-27T06:53:39.293Z,3.20
2022-11-27T06:56:28.336Z,3.13
2022-11-27T06:59:15.636Z,3.12
2022-11-27T07:02:02.553Z,3.12
2022-11-27T07:04:49.541Z,3.06
2022-11-27T07:07:39.783Z,3.12
2022-11-27T07:10:35.059Z,3.19
2022-11-27T07:13:21.885Z,3.36
2022-11-27T07:16:10.485Z,3.42
2022-11-27T07:19:05.953Z,3.42
2022-11-27T07:21:52.880Z,3.41
2022-11-27T07:24:40.095Z,3.44
2022-11-27T07:27:27.175Z,3.55
2022-11-27T07:30:14.839Z,3.65
2022-11-27T07:33:01.788Z,3.76
2022-11-27T07:35:48.694Z,3.86
2022-11-27T07:38:35.659Z,3.89
2022-11-27T07:41:22.585Z,3.84
2022-11-27T07:44:10.088Z,3.87
2022-11-27T07:46:59.861Z,3.85
2022-11-27T07:49:46.764Z,3.77
2022-11-27T07:52:41.108Z,3.85
2022-11-27T07:55:28.624Z,3.92
2022-11-27T07:58:15.479Z,3.96
2022-11-27T08:01:07.971Z,3.97
2022-11-27T08:03:54.883Z,3.95
2022-11-27T08:06:42.031Z,4.06
2022-11-27T08:09:30.191Z,4.07
2022-11-27T08:12:17.149Z,4.19
2022-11-27T08:15:05.726Z,4.15
2022-11-27T08:17:52.634Z,4.14
2022-11-27T08:20:39.548Z,4.16
2022-11-27T08:23:26.449Z,4.15
2022-11-27T08:26:13.880Z,4.17
2022-11-27T08:29:00.971Z,4.15
2022-11-27T08:31:47.961Z,4.14
2022-11-27T08:34:34.899Z,4.20
2022-11-27T08:37:22.095Z,4.23
2022-11-27T08:40:09.810Z,4.30
2022-11-27T08:42:58.504Z,4.29
2022-11-27T08:45:45.475Z,4.29
2022-11-27T08:48:32.398Z,4.37
2022-11-27T08:51:19.319Z,4.42
2022-11-27T08:54:06.204Z,4.45
2022-11-27T08:56:53.102Z,4.53
2022-11-27T08:59:40.012Z,4.83
2022-11-27T09:02:27.160Z,5.01
2022-11-27T09:05:14.102Z,5.18
2022-11-27T09:08:02.555Z,5.10
2022-11-27T09:10:49.584Z,4.94
2022-11-27T09:13:38.172Z,4.80
2022-11-27T09:16:25.131Z,4.74
2022-11-27T09:19:12.017Z,4.74
2022-11-27T09:21:59.545Z,4.71
2022-11-27T09:24:46.986Z,4.77
2022-11-27T09:27:33.910Z,4.80
2022-11-27T09:30:20.932Z,4.86
2022-11-27T09:33:07.819Z,4.82
2022-11-27T09:35:55.054Z,4.88
2022-11-27T09:38:42.682Z,4.97
2022-11-27T09:41:59.708Z,5.06
2022-11-27T09:44:54.551Z,5.08
2022-11-27T09:47:49.881Z,5.07
2022-11-27T09:50:42.558Z,5.26
2022-11-27T09:53:40.463Z,5.28
2022-11-27T09:56:28.288Z,5.34
2022-11-27T09:59:21.723Z,5.30
2022-11-27T10:02:24.229Z,5.41
2022-11-27T10:05:20.881Z,5.35
2022-11-27T10:08:36.516Z,5.47
2022-11-27T10:12:05.578Z,5.52
2022-11-27T10:15:07.498Z,5.41
2022-11-27T10:18:22.428Z,5.47
2022-11-27T10:21:49.757Z,5.58
2022-11-27T10:24:46.284Z,5.52
2022-11-27T10:31:43.217Z,5.63
2022-11-27T10:34:48.629Z,5.61
2022-11-27T10:38:05.262Z,5.73
2022-11-27T10:41:49.741Z,5.82
2022-11-27T10:44:44.269Z,5.90
2022-11-27T10:47:33.864Z,5.98
2022-11-27T10:50:21.183Z,6.01
2022-11-27T10:53:20.149Z,6.10
2022-11-27T10:56:50.188Z,6.11
2022-11-27T10:59:43.804Z,6.20
2022-11-27T11:02:37.884Z,6.29
2022-11-27T11:05:45.557Z,6.30
2022-11-27T11:08:37.281Z,6.22
2022-11-27T11:11:26.539Z,6.31
2022-11-27T11:14:21.207Z,6.25
2022-11-27T11:17:16.495Z,6.21
2022-11-27T11:20:32.906Z,6.24
2022-11-27T11:23:27.106Z,6.29
2022-11-27T11:26:33.321Z,6.16
2022-11-27T11:29:35.363Z,6.26
2022-11-27T11:32:34.968Z,6.41
2022-11-27T11:35:32.703Z,6.42
2022-11-27T11:38:27.232Z,6.50
2022-11-27T11:41:17.943Z,6.43
2022-11-27T11:44:05.084Z,6.42
2022-11-27T11:46:53.848Z,6.41
2022-11-27T11:49:40.795Z,6.36
2022-11-27T11:52:54.691Z,6.35
2022-11-27T11:56:19.020Z,6.30
2022-11-27T11:59:45.183Z,6.25
2022-11-27T12:03:11.284Z,6.19
2022-11-27T12:06:36.176Z,6.22
2022-11-27T12:10:15.390Z,6.26
2022-11-27T12:13:34.113Z,6.30
2022-11-27T12:17:13.218Z,6.21
2022-11-27T12:20:18.707Z,6.12
2022-11-27T12:23:51.874Z,6.09
2022-11-27T12:27:06.609Z,6.10
2022-11-27T12:30:20.773Z,6.17
2022-11-27T12:33:48.686Z,6.22
2022-11-27T12:37:13.744Z,6.31
2022-11-27T12:40:36.296Z,6.34
2022-11-27T12:43:27.985Z,6.31
2022-11-27T12:47:06.911Z,6.37
2022-11-27T12:50:09.768Z,6.37
2022-11-27T12:53:11.740Z,6.30
2022-11-27T12:56:33.871Z,6.33
2022-11-27T12:59:33.691Z,6.35
2022-11-27T13:02:46.815Z,6.35
2022-11-27T13:06:13.026Z,6.35
2022-11-27T13:09:07.730Z,6.23
2022-11-27T13:11:56.620Z,6.22
2022-11-27T13:14:52.687Z,6.13
2022-11-27T13:17:42.432Z,6.10
2022-11-27T13:20:36.696Z,6.06
2022-11-27T13:23:23.784Z,5.97
2022-11-27T13:26:35.171Z,5.97
2022-11-27T13:29:34.071Z,5.91
2022-11-27T13:32:24.966Z,5.93
2022-11-27T13:35:28.560Z,5.93
2022-11-27T13:38:23.229Z,5.95
2022-11-27T13:41:21.175Z,6.00
2022-11-27T13:44:27.314Z,6.05
2022-11-27T13:47:17.703Z,6.11
2022-11-27T13:50:16.575Z,6.13
2022-11-27T13:53:06.267Z,6.09
2022-11-27T13:55:54.970Z,6.10
2022-11-27T13:58:43.127Z,6.12
2022-11-27T14:01:30.118Z,5.97
2022-11-27T14:04:17.096Z,5.99
2022-11-27T14:07:11.725Z,5.83
2022-11-27T14:10:08.717Z,5.81
2022-11-27T14:13:01.695Z,5.76
2022-11-27T14:16:01.606Z,5.57
2022-11-27T14:18:56.864Z,5.46
2022-11-27T14:21:44.352Z,5.32
2022-11-27T14:24:43.421Z,5.25
2022-11-27T14:27:35.838Z,5.21
2022-11-27T14:30:48.397Z,5.23
2022-11-27T14:33:59.636Z,5.24
2022-11-27T14:36:42.486Z,5.18
2022-11-27T14:39:36.916Z,5.04
2022-11-27T14:42:30.650Z,4.97
2022-11-27T14:45:21.894Z,4.97
2022-11-27T14:48:20.154Z,4.96
2022-11-27T14:51:13.711Z,4.95
2022-11-27T14:54:03.191Z,4.87
2022-11-27T14:56:50.575Z,4.86
2022-11-27T14:59:37.496Z,4.77
2022-11-27T15:02:29.250Z,4.74
2022-11-27T15:05:22.665Z,4.71
2022-11-27T15:08:10.532Z,4.68
2022-11-27T15:10:59.623Z,4.63
2022-11-27T15:13:55.708Z,4.51
2022-11-27T15:16:49.576Z,4.51
2022-11-27T15:19:37.727Z,4.42
2022-11-27T15:22:24.823Z,4.35
2022-11-27T15:25:35.597Z,4.35
2022-11-27T15:28:58.504Z,4.39
2022-11-27T15:31:51.557Z,4.40
2022-11-27T15:34:38.718Z,4.31
2022-11-27T15:37:31.291Z,4.23
2022-11-27T15:40:35.985Z,4.18
2022-11-27T15:43:22.825Z,4.22
2022-11-27T15:46:12.911Z,4.13
2022-11-27T15:48:59.918Z,4.07
2022-11-27T15:51:46.843Z,4.00
2022-11-27T15:54:33.693Z,3.94
2022-11-27T15:57:21.128Z,3.94
2022-11-27T16:00:10.103Z,3.97
2022-11-27T16:02:57.366Z,3.90
2022-11-27T16:05:44.278Z,3.84
2022-11-27T16:08:31.497Z,3.79
2022-11-27T16:11:19.706Z,3.70
2022-11-27T16:14:06.879Z,3.65
2022-11-27T16:16:53.840Z,3.71
2022-11-27T16:19:41.113Z,3.70
2022-11-27T16:22:28.022Z,3.72
2022-11-27T16:25:15.065Z,3.61
2022-11-27T16:28:03.220Z,3.64
2022-11-27T16:30:53.948Z,3.57
2022-11-27T16:33:41.706Z,3.47
2022-11-27T16:36:29.298Z,3.43
2022-11-27T16:39:17.386Z,3.34
2022-11-27T16:42:04.434Z,3.26
2022-11-27T16:44:51.301Z,3.21
2022-11-27T16:47:38.172Z,3.20
2022-11-27T16:50:26.658Z,3.19
2022-11-27T16:53:13.511Z,3.09
2022-11-27T16:56:00.320Z,3.11
2022-11-27T16:58:48.142Z,3.11
2022-11-27T17:01:36.336Z,3.04
2022-11-27T17:04:23.434Z,3.02
2022-11-27T17:07:11.047Z,2.96
2022-11-27T17:09:58.034Z,3.00
2022-11-27T17:12:44.895Z,2.98
2022-11-27T17:15:40.396Z,2.91
2022-11-27T17:18:27.669Z,2.90
2022-11-27T17:21:34.769Z,2.97
2022-11-27T17:24:21.629Z,2.92
2022-11-27T17:27:08.545Z,2.95
2022-11-27T17:29:55.418Z,2.99
2022-11-27T17:32:42.311Z,2.95
2022-11-27T17:35:30.570Z,2.98
2022-11-27T17:38:17.714Z,2.95
2022-11-27T17:41:07.961Z,2.91
2022-11-27T17:43:54.905Z,2.93
2022-11-27T17:46:44.893Z,2.93
2022-11-27T17:49:31.746Z,2.90
2022-11-27T17:52:18.662Z,3.02
2022-11-27T17:55:06.365Z,3.03
2022-11-27T17:57:53.796Z,2.99
2022-11-27T18:00:40.767Z,2.91
2022-11-27T18:03:29.210Z,2.86
2022-11-27T18:06:18.396Z,2.88
2022-11-27T18:09:05.493Z,2.86
2022-11-27T18:11:54.824Z,2.85
2022-11-27T18:14:41.762Z,2.92
2022-11-27T18:17:29.356Z,2.87
2022-11-27T18:20:16.365Z,2.89
2022-11-27T18:23:04.326Z,2.89
2022-11-27T18:25:51.431Z,2.83
2022-11-27T18:28:38.820Z,2.81
2022-11-27T18:31:27.085Z,2.76
2022-11-27T18:34:13.997Z,2.78
2022-11-27T18:37:00.990Z,2.80
2022-11-27T18:39:47.984Z,2.85
2022-11-27T18:42:35.101Z,2.84
2022-11-27T18:45:32.955Z,2.86
2022-11-27T18:48:20.729Z,2.80
2022-11-27T18:51:10.142Z,2.74
2022-11-27T18:53:57.271Z,2.68
2022-11-27T18:56:44.191Z,2.66
2022-11-27T18:59:31.091Z,2.63
2022-11-27T19:02:18.062Z,2.58
2022-11-27T19:05:05.411Z,2.52
2022-11-27T19:07:52.543Z,2.48
2022-11-27T19:10:39.416Z,2.45
2022-11-27T19:13:26.389Z,2.40
2022-11-27T19:16:24.864Z,2.39
2022-11-27T19:22:26.158Z,2.36
2022-11-27T19:25:13.210Z,2.38
2022-11-27T19:28:00.120Z,2.31
2022-11-27T19:30:47.039Z,2.35
2022-11-27T19:33:36.109Z,2.31
2022-11-27T19:36:23.355Z,2.24
2022-11-27T19:39:14.619Z,2.28
2022-11-27T19:42:01.541Z,2.26
2022-11-27T19:44:48.451Z,2.15
2022-11-27T19:47:35.364Z,2.14
2022-11-27T19:50:22.253Z,2.14
2022-11-27T19:53:09.189Z,2.13
2022-11-27T19:55:56.175Z,2.15
2022-11-27T19:58:43.750Z,2.12
2022-11-27T20:01:30.806Z,2.10
2022-11-27T20:04:17.796Z,1.94
2022-11-27T20:07:04.920Z,1.87
2022-11-27T20:09:52.260Z,1.59
2022-11-27T20:12:39.181Z,1.35
2022-11-27T20:15:26.304Z,1.19
2022-11-27T20:18:13.176Z,1.06
2022-11-27T20:21:12.166Z,0.86
2022-11-27T20:23:59.088Z,0.90
2022-11-27T20:26:46.081Z,0.84
2022-11-27T20:29:33.140Z,0.80
2022-11-27T20:32:20.046Z,0.80
2022-11-27T20:35:07.343Z,0.78
2022-11-27T20:37:54.331Z,0.80
2022-11-27T20:40:41.223Z,0.83
2022-11-27T20:43:28.327Z,0.81
2022-11-27T20:46:16.433Z,0.79
2022-11-27T20:49:04.290Z,0.75
2022-11-27T20:51:51.630Z,0.86
2022-11-27T20:54:38.606Z,0.98
2022-11-27T20:57:25.538Z,0.95
2022-11-27T21:00:13.013Z,1.00
2022-11-27T21:02:59.917Z,1.07
2022-11-27T21:05:48.188Z,1.03
2022-11-27T21:08:35.560Z,0.78
2022-11-27T21:11:25.298Z,0.79
2022-11-27T21:14:14.700Z,0.70
2022-11-27T21:17:05.019Z,0.63
2022-11-27T21:19:52.741Z,0.61
2022-11-27T21:22:42.574Z,0.63
2022-11-27T21:25:29.563Z,0.70
2022-11-27T21:28:16.481Z,0.81
2022-11-27T21:31:18.391Z,0.78
2022-11-27T21:34:07.287Z,0.80
2022-11-27T21:36:54.171Z,0.91
2022-11-27T21:39:41.350Z,0.82
2022-11-27T21:42:29.261Z,0.76
2022-11-27T21:45:19.146Z,0.63
2022-11-27T21:48:09.960Z,0.62
2022-11-27T21:51:04.967Z,0.62
2022-11-27T21:53:53.417Z,0.73
2022-11-27T21:56:40.911Z,0.78
2022-11-27T21:59:27.793Z,0.76
2022-11-27T22:02:14.708Z,0.81
2022-11-27T22:05:01.650Z,0.86
2022-11-27T22:07:48.623Z,0.88
2022-11-27T22:10:39.606Z,0.95
2022-11-27T22:13:28.268Z,0.90
2022-11-27T22:16:21.320Z,0.93
2022-11-27T22:19:08.493Z,0.98
2022-11-27T22:21:55.444Z,1.03
2022-11-27T22:24:42.893Z,1.04
2022-11-27T22:27:30.189Z,1.09
2022-11-27T22:30:17.719Z,1.02
2022-11-27T22:33:04.654Z,1.04
2022-11-27T22:35:51.693Z,1.06
2022-11-27T22:38:38.988Z,1.03
2022-11-27T22:41:28.030Z,1.07
2022-11-27T22:44:17.244Z,1.07
2022-11-27T22:47:04.231Z,1.09
2022-11-27T22:49:51.164Z,0.90
2022-11-27T22:52:38.139Z,0.71
2022-11-27T22:55:25.049Z,0.74
2022-11-27T22:58:11.969Z,0.69
2022-11-27T23:00:59.381Z,0.71
2022-11-27T23:03:46.464Z,0.80
2022-11-27T23:06:33.437Z,0.74
2022-11-27T23:09:20.415Z,0.62
2022-11-27T23:12:07.418Z,0.54
2022-11-27T23:14:54.398Z,0.77
2022-11-27T23:17:41.388Z,0.69
2022-11-27T23:20:28.527Z,0.47
2022-11-27T23:23:15.432Z,0.51
2022-11-27T23:26:07.358Z,0.35
2022-11-27T23:28:54.301Z,0.30
2022-11-27T23:31:41.393Z,0.12
2022-11-27T23:34:28.956Z,0.14
2022-11-27T23:37:15.940Z,0.20
2022-11-27T23:40:03.007Z,0.11
2022-11-27T23:42:50.050Z,0.04
2022-11-27T23:45:38.196Z,-0.10
2022-11-27T23:48:25.164Z,0.04
2022-11-27T23:51:19.619Z,0.08
2022-11-27T23:54:09.352Z,-0.01
2022-11-27T23:56:56.540Z,0.08
2022-11-27T23:59:43.739Z,0.13
